createdAt,value
2023-03-22T00:00:32.395Z,89.88
2023-03-22T00:01:32.379Z,90.08
2023-03-22T00:02:32.424Z,89.98
2023-03-22T00:03:32.392Z,89.88
2023-03-22T00:04:32.382Z,89.63
2023-03-22T00:05:32.321Z,89.63
2023-03-22T00:06:32.322Z,89.43
2023-03-22T00:07:32.352Z,89.53
2023-03-22T00:08:32.285Z,89.53
2023-03-22T00:09:32.277Z,89.32
2023-03-22T00:10:32.265Z,88.92
2023-03-22T00:11:32.302Z,89.12
2023-03-22T00:12:32.222Z,88.92
2023-03-22T00:13:33.867Z,89.12
2023-03-22T00:14:32.200Z,89.12
2023-03-22T00:15:32.187Z,88.82
2023-03-22T00:16:32.258Z,88.82
2023-03-22T00:17:32.148Z,89.23
2023-03-22T00:18:32.130Z,89.12
2023-03-22T00:19:32.128Z,89.12
2023-03-22T00:20:32.118Z,88.92
2023-03-22T00:21:32.113Z,89.12
2023-03-22T00:22:32.083Z,88.82
2023-03-22T00:23:32.078Z,89.02
2023-03-22T00:24:32.070Z,88.92
2023-03-22T00:25:32.022Z,88.82
2023-03-22T00:26:32.021Z,89.02
2023-03-22T00:27:32.000Z,88.92
2023-03-22T00:28:32.020Z,89.02
2023-03-22T00:29:31.967Z,88.92
2023-03-22T00:30:31.967Z,88.71
2023-03-22T00:31:32.067Z,88.51
2023-03-22T00:32:31.935Z,88.71
2023-03-22T00:33:31.945Z,88.61
2023-03-22T00:34:31.935Z,88.82
2023-03-22T00:35:31.980Z,88.82
2023-03-22T00:36:31.898Z,88.82
2023-03-22T00:37:31.880Z,89.02
2023-03-22T00:38:41.656Z,89.02
2023-03-22T00:39:32.898Z,89.02
2023-03-22T00:40:31.861Z,89.12
2023-03-22T00:41:31.811Z,89.02
2023-03-22T00:42:31.791Z,89.02
2023-03-22T00:43:31.783Z,88.92
2023-03-22T00:44:31.797Z,89.12
2023-03-22T00:45:31.750Z,88.92
2023-03-22T00:46:31.784Z,88.71
2023-03-22T00:47:31.711Z,88.61
2023-03-22T00:48:31.717Z,88.71
2023-03-22T00:49:31.701Z,88.92
2023-03-22T00:50:31.661Z,89.26
2023-03-22T00:51:31.669Z,89.26
2023-03-22T00:52:31.664Z,89.47
2023-03-22T00:53:31.638Z,89.37
2023-03-22T00:54:31.602Z,89.26
2023-03-22T00:55:31.623Z,89.47
2023-03-22T00:56:31.627Z,89.47
2023-03-22T00:57:31.593Z,89.06
2023-03-22T00:58:31.578Z,89.37
2023-03-22T00:59:31.542Z,89.06
2023-03-22T01:00:31.532Z,89.17
2023-03-22T01:01:31.622Z,89.26
2023-03-22T01:02:31.504Z,89.37
2023-03-22T01:03:31.533Z,89.06
2023-03-22T01:04:31.463Z,89.06
2023-03-22T01:05:31.456Z,89.37
2023-03-22T01:06:31.475Z,89.26
2023-03-22T01:07:31.473Z,89.26
2023-03-22T01:08:31.413Z,89.37
2023-03-22T01:09:31.430Z,89.17
2023-03-22T01:10:31.372Z,89.17
2023-03-22T01:11:31.366Z,89.37
2023-03-22T01:12:31.373Z,89.47
2023-03-22T01:13:31.355Z,89.26
2023-03-22T01:14:31.359Z,89.37
2023-03-22T01:15:31.303Z,89.17
2023-03-22T01:16:31.386Z,89.26
2023-03-22T01:17:31.284Z,89.06
2023-03-22T01:18:31.287Z,88.96
2023-03-22T01:19:31.241Z,89.02
2023-03-22T01:20:31.233Z,88.71
2023-03-22T01:21:31.240Z,88.82
2023-03-22T01:22:31.205Z,89.12
2023-03-22T01:23:31.192Z,89.26
2023-03-22T01:24:31.216Z,89.37
2023-03-22T01:25:31.162Z,89.37
2023-03-22T01:26:31.189Z,89.37
2023-03-22T01:27:31.135Z,89.17
2023-03-22T01:28:33.890Z,89.06
2023-03-22T01:29:31.133Z,89.17
2023-03-22T01:30:31.094Z,89.17
2023-03-22T01:31:31.110Z,89.26
2023-03-22T01:32:31.077Z,89.26
2023-03-22T01:33:31.088Z,89.06
2023-03-22T01:34:31.024Z,89.17
2023-03-22T01:35:31.060Z,89.06
2023-03-22T01:36:31.017Z,89.17
2023-03-22T01:37:31.017Z,89.26
2023-03-22T01:38:30.995Z,89.47
2023-03-22T01:39:30.986Z,89.58
2023-03-22T01:40:30.958Z,89.58
2023-03-22T01:41:30.971Z,89.67
2023-03-22T01:42:30.909Z,89.67
2023-03-22T01:43:30.928Z,89.58
2023-03-22T01:44:30.905Z,89.47
2023-03-22T01:45:30.876Z,89.58
2023-03-22T01:46:30.950Z,89.37
2023-03-22T01:47:30.864Z,89.37
2023-03-22T01:48:30.878Z,89.47
2023-03-22T01:49:30.877Z,89.26
2023-03-22T01:50:30.826Z,89.58
2023-03-22T01:51:30.780Z,89.58
2023-03-22T01:52:30.804Z,89.67
2023-03-22T01:53:30.784Z,89.98
2023-03-22T01:54:30.748Z,89.78
2023-03-22T01:55:30.739Z,90.12
2023-03-22T01:56:30.777Z,90.23
2023-03-22T01:57:30.728Z,90.33
2023-03-22T01:58:30.784Z,90.43
2023-03-22T01:59:30.708Z,90.43
2023-03-22T02:00:30.649Z,90.43
2023-03-22T02:01:30.751Z,90.64
2023-03-22T02:02:30.718Z,90.53
2023-03-22T02:03:30.622Z,90.53
2023-03-22T02:04:30.590Z,90.74
2023-03-22T02:05:30.603Z,90.78
2023-03-22T02:06:30.613Z,91.09
2023-03-22T02:07:30.574Z,90.88
2023-03-22T02:08:30.554Z,90.88
2023-03-22T02:09:30.538Z,90.99
2023-03-22T02:10:30.509Z,91.19
2023-03-22T02:11:30.507Z,91.39
2023-03-22T02:12:30.507Z,91.39
2023-03-22T02:13:30.484Z,91.50
2023-03-22T02:14:30.454Z,91.64
2023-03-22T02:15:30.504Z,91.85
2023-03-22T02:16:30.446Z,91.95
2023-03-22T02:17:30.416Z,91.95
2023-03-22T02:18:30.455Z,91.91
2023-03-22T02:19:30.385Z,91.95
2023-03-22T02:20:30.387Z,92.05
2023-03-22T02:21:30.366Z,92.05
2023-03-22T02:22:30.337Z,92.15
2023-03-22T02:23:30.336Z,92.25
2023-03-22T02:24:30.346Z,92.05
2023-03-22T02:25:30.306Z,91.85
2023-03-22T02:26:30.277Z,91.50
2023-03-22T02:27:30.270Z,91.50
2023-03-22T02:28:30.246Z,91.50
2023-03-22T02:29:30.231Z,91.19
2023-03-22T02:30:30.238Z,91.09
2023-03-22T02:31:30.273Z,91.15
2023-03-22T02:32:30.217Z,91.19
2023-03-22T02:33:30.197Z,90.94
2023-03-22T02:34:30.163Z,90.94
2023-03-22T02:35:30.297Z,91.09
2023-03-22T02:36:30.141Z,90.99
2023-03-22T02:37:30.130Z,91.19
2023-03-22T02:38:30.117Z,91.19
2023-03-22T02:39:30.101Z,91.39
2023-03-22T02:40:30.069Z,91.64
2023-03-22T02:41:30.093Z,91.74
2023-03-22T02:42:30.069Z,91.95
2023-03-22T02:43:30.089Z,91.95
2023-03-22T02:44:30.037Z,91.95
2023-03-22T02:45:30.026Z,92.15
2023-03-22T02:46:30.082Z,92.25
2023-03-22T02:47:30.113Z,92.15
2023-03-22T02:48:29.987Z,92.05
2023-03-22T02:49:30.016Z,92.05
2023-03-22T02:50:29.959Z,92.15
2023-03-22T02:51:29.942Z,92.40
2023-03-22T02:52:29.923Z,92.50
2023-03-22T02:53:29.895Z,92.50
2023-03-22T02:54:29.897Z,92.50
2023-03-22T02:55:29.864Z,92.60
2023-03-22T02:56:29.918Z,92.91
2023-03-22T02:57:29.854Z,92.91
2023-03-22T02:58:29.856Z,93.01
2023-03-22T02:59:29.824Z,93.01
2023-03-22T03:00:29.822Z,93.01
2023-03-22T03:01:29.813Z,92.91
2023-03-22T03:02:29.813Z,92.91
2023-03-22T03:03:29.761Z,92.91
2023-03-22T03:04:29.764Z,92.91
2023-03-22T03:05:29.727Z,93.16
2023-03-22T03:06:29.755Z,93.26
2023-03-22T03:07:29.710Z,93.16
2023-03-22T03:08:29.714Z,93.16
2023-03-22T03:09:29.668Z,93.06
2023-03-22T03:10:29.704Z,93.16
2023-03-22T03:11:30.422Z,93.37
2023-03-22T03:12:29.636Z,93.47
2023-03-22T03:13:29.741Z,93.57
2023-03-22T03:14:29.606Z,93.57
2023-03-22T03:15:29.651Z,93.67
2023-03-22T03:16:29.736Z,93.88
2023-03-22T03:18:22.011Z,94.23
2023-03-22T03:19:22.006Z,94.23
2023-03-22T03:20:22.078Z,94.12
2023-03-22T03:21:21.964Z,94.12
2023-03-22T03:22:21.982Z,93.88
2023-03-22T03:23:21.937Z,93.88
2023-03-22T03:24:21.936Z,93.98
2023-03-22T03:25:21.920Z,94.12
2023-03-22T03:26:21.928Z,94.12
2023-03-22T03:27:21.890Z,94.02
2023-03-22T03:28:21.855Z,94.23
2023-03-22T03:29:21.856Z,94.33
2023-03-22T03:30:21.867Z,94.54
2023-03-22T03:31:21.845Z,94.64
2023-03-22T03:32:21.813Z,94.74
2023-03-22T03:33:21.807Z,94.64
2023-03-22T03:34:21.801Z,94.64
2023-03-22T03:35:21.829Z,94.74
2023-03-22T03:36:21.777Z,94.99
2023-03-22T03:37:21.753Z,95.09
2023-03-22T03:38:21.740Z,95.09
2023-03-22T03:39:21.737Z,95.20
2023-03-22T03:40:21.695Z,95.05
2023-03-22T03:41:21.690Z,94.95
2023-03-22T03:42:21.708Z,95.05
2023-03-22T03:43:21.670Z,94.95
2023-03-22T03:44:21.666Z,94.84
2023-03-22T03:45:21.622Z,94.95
2023-03-22T03:46:21.615Z,94.89
2023-03-22T03:47:21.613Z,94.84
2023-03-22T03:48:21.669Z,95.09
2023-03-22T03:49:21.619Z,94.95
2023-03-22T03:50:21.582Z,94.99
2023-03-22T03:51:21.542Z,95.20
2023-03-22T03:52:21.548Z,95.20
2023-03-22T03:53:21.514Z,95.20
2023-03-22T03:54:21.529Z,95.29
2023-03-22T03:55:21.512Z,95.40
2023-03-22T03:56:21.513Z,95.50
2023-03-22T03:57:21.471Z,95.61
2023-03-22T03:58:21.454Z,95.70
2023-03-22T03:59:21.443Z,95.91
2023-03-22T04:00:21.450Z,95.95
2023-03-22T04:01:21.428Z,96.16
2023-03-22T04:02:21.469Z,96.26
2023-03-22T04:03:21.403Z,96.37
2023-03-22T04:04:21.444Z,96.37
2023-03-22T04:05:21.367Z,96.37
2023-03-22T04:06:21.382Z,96.47
2023-03-22T04:07:21.337Z,96.37
2023-03-22T04:08:21.330Z,96.47
2023-03-22T04:09:21.300Z,96.47
2023-03-22T04:10:21.276Z,96.37
2023-03-22T04:11:21.271Z,96.37
2023-03-22T04:12:21.289Z,96.47
2023-03-22T04:13:21.285Z,96.57
2023-03-22T04:14:21.233Z,96.57
2023-03-22T04:15:21.240Z,96.67
2023-03-22T04:16:21.278Z,96.88
2023-03-22T04:17:21.235Z,96.98
2023-03-22T04:18:21.216Z,96.88
2023-03-22T04:19:21.182Z,96.78
2023-03-22T04:20:21.141Z,96.88
2023-03-22T04:21:21.200Z,96.78
2023-03-22T04:22:21.168Z,96.57
2023-03-22T04:23:21.118Z,96.37
2023-03-22T04:24:21.093Z,96.47
2023-03-22T04:25:21.078Z,96.57
2023-03-22T04:26:21.059Z,96.67
2023-03-22T04:27:21.064Z,96.67
2023-03-22T04:28:21.067Z,96.47
2023-03-22T04:29:21.025Z,96.67
2023-03-22T04:30:21.015Z,96.67
2023-03-22T04:31:21.078Z,96.78
2023-03-22T04:32:20.983Z,96.63
2023-03-22T04:33:20.962Z,96.42
2023-03-22T04:34:20.994Z,96.42
2023-03-22T04:35:20.985Z,96.47
2023-03-22T04:36:20.906Z,96.57
2023-03-22T04:37:20.941Z,96.67
2023-03-22T04:38:20.894Z,96.63
2023-03-22T04:39:20.899Z,96.32
2023-03-22T04:40:20.917Z,96.22
2023-03-22T04:41:20.876Z,96.22
2023-03-22T04:42:20.857Z,96.22
2023-03-22T04:43:20.833Z,96.26
2023-03-22T04:44:20.802Z,96.47
2023-03-22T04:45:20.804Z,96.57
2023-03-22T04:46:20.825Z,96.47
2023-03-22T04:47:20.813Z,96.47
2023-03-22T04:48:20.800Z,96.53
2023-03-22T04:49:20.777Z,96.42
2023-03-22T04:50:20.741Z,96.32
2023-03-22T04:51:20.738Z,96.12
2023-03-22T04:52:20.708Z,96.32
2023-03-22T04:53:20.693Z,96.32
2023-03-22T04:54:20.692Z,96.32
2023-03-22T04:55:20.676Z,96.32
2023-03-22T04:56:20.683Z,96.12
2023-03-22T04:57:20.644Z,96.01
2023-03-22T04:58:20.722Z,95.91
2023-03-22T04:59:20.679Z,95.81
2023-03-22T05:00:20.640Z,95.61
2023-03-22T05:01:20.698Z,95.50
2023-03-22T05:02:20.637Z,95.61
2023-03-22T05:03:20.556Z,95.61
2023-03-22T05:04:20.543Z,95.50
2023-03-22T05:05:20.539Z,95.50
2023-03-22T05:06:20.530Z,95.46
2023-03-22T05:07:20.530Z,95.36
2023-03-22T05:08:20.474Z,95.25
2023-03-22T05:09:22.843Z,95.25
2023-03-22T05:10:20.464Z,95.15
2023-03-22T05:11:20.472Z,95.05
2023-03-22T05:12:20.425Z,95.05
2023-03-22T05:13:20.430Z,94.95
2023-03-22T05:14:20.462Z,94.95
2023-03-22T05:15:20.413Z,94.84
2023-03-22T05:16:20.392Z,94.84
2023-03-22T05:17:20.363Z,94.84
2023-03-22T05:18:20.366Z,94.74
2023-03-22T05:19:20.339Z,94.74
2023-03-22T05:20:20.337Z,94.64
2023-03-22T05:21:20.311Z,94.64
2023-03-22T05:22:20.318Z,94.64
2023-03-22T05:23:20.314Z,94.64
2023-03-22T05:24:20.298Z,94.54
2023-03-22T05:25:20.266Z,94.43
2023-03-22T05:26:20.237Z,94.54
2023-03-22T05:27:20.218Z,94.33
2023-03-22T05:28:20.221Z,94.12
2023-03-22T05:29:20.222Z,94.12
2023-03-22T05:30:20.227Z,94.02
2023-03-22T05:31:20.200Z,93.88
2023-03-22T05:32:20.152Z,93.77
2023-03-22T05:33:20.147Z,93.67
2023-03-22T05:34:20.134Z,93.67
2023-03-22T05:35:20.126Z,93.92
2023-03-22T05:36:20.154Z,93.67
2023-03-22T05:37:20.133Z,93.47
2023-03-22T05:38:20.107Z,93.37
2023-03-22T05:39:20.068Z,93.37
2023-03-22T05:40:20.053Z,93.26
2023-03-22T05:41:20.030Z,93.26
2023-03-22T05:42:20.015Z,93.26
2023-03-22T05:43:20.034Z,93.26
2023-03-22T05:44:20.000Z,93.26
2023-03-22T05:45:19.985Z,93.47
2023-03-22T05:46:20.085Z,93.47
2023-03-22T05:47:19.950Z,93.47
2023-03-22T05:48:19.963Z,93.47
2023-03-22T05:49:19.945Z,93.57
2023-03-22T05:50:19.912Z,93.67
2023-03-22T05:51:19.904Z,93.67
2023-03-22T05:52:19.898Z,93.37
2023-03-22T05:53:19.896Z,93.37
2023-03-22T05:54:19.869Z,93.26
2023-03-22T05:55:19.847Z,93.12
2023-03-22T05:56:19.829Z,92.81
2023-03-22T05:57:19.832Z,92.60
2023-03-22T05:58:19.798Z,92.19
2023-03-22T05:59:19.818Z,91.54
2023-03-22T06:00:19.785Z,91.03
2023-03-22T06:01:19.792Z,90.82
2023-03-22T06:02:19.802Z,91.03
2023-03-22T06:03:19.854Z,90.92
2023-03-22T06:04:19.726Z,90.88
2023-03-22T06:05:19.739Z,90.99
2023-03-22T06:06:19.677Z,90.88
2023-03-22T06:07:19.708Z,90.88
2023-03-22T06:08:19.682Z,90.88
2023-03-22T06:09:19.692Z,90.88
2023-03-22T06:10:19.639Z,90.99
2023-03-22T06:11:19.736Z,90.88
2023-03-22T06:12:19.625Z,90.78
2023-03-22T06:13:19.632Z,90.58
2023-03-22T06:14:19.609Z,90.64
2023-03-22T06:15:19.570Z,90.33
2023-03-22T06:16:19.617Z,90.53
2023-03-22T06:17:19.545Z,90.23
2023-03-22T06:18:19.537Z,89.82
2023-03-22T06:19:19.521Z,89.82
2023-03-22T06:20:19.514Z,89.61
2023-03-22T06:21:19.480Z,89.82
2023-03-22T06:22:19.455Z,89.72
2023-03-22T06:23:19.446Z,89.51
2023-03-22T06:24:19.417Z,89.61
2023-03-22T06:25:19.446Z,89.61
2023-03-22T06:26:19.395Z,89.58
2023-03-22T06:27:19.424Z,89.47
2023-03-22T06:28:19.414Z,89.67
2023-03-22T06:29:19.372Z,89.17
2023-03-22T06:30:19.360Z,88.35
2023-03-22T06:31:19.429Z,87.90
2023-03-22T06:32:19.311Z,87.70
2023-03-22T06:33:19.305Z,87.70
2023-03-22T06:34:19.294Z,87.70
2023-03-22T06:35:19.318Z,87.70
2023-03-22T06:36:19.250Z,87.70
2023-03-22T06:37:19.228Z,87.49
2023-03-22T06:38:19.227Z,87.49
2023-03-22T06:39:19.210Z,87.70
2023-03-22T06:40:19.190Z,87.49
2023-03-22T06:41:19.228Z,88.00
2023-03-22T06:42:19.174Z,87.90
2023-03-22T06:43:19.124Z,87.90
2023-03-22T06:44:19.144Z,88.00
2023-03-22T06:45:19.114Z,87.38
2023-03-22T06:46:19.155Z,87.38
2023-03-22T06:47:19.105Z,87.90
2023-03-22T06:48:19.149Z,87.18
2023-03-22T06:49:19.045Z,86.88
2023-03-22T06:50:19.048Z,86.63
2023-03-22T06:51:19.051Z,86.83
2023-03-22T06:52:19.007Z,86.22
2023-03-22T06:53:18.998Z,86.22
2023-03-22T06:54:19.007Z,86.63
2023-03-22T06:55:18.953Z,86.73
2023-03-22T06:56:18.949Z,86.73
2023-03-22T06:57:18.974Z,86.67
2023-03-22T06:58:18.929Z,86.36
2023-03-22T06:59:18.916Z,86.16
2023-03-22T07:00:18.885Z,86.33
2023-03-22T07:01:18.892Z,86.22
2023-03-22T07:02:18.865Z,86.12
2023-03-22T07:03:18.896Z,86.47
2023-03-22T07:04:18.903Z,86.83
2023-03-22T07:05:18.824Z,86.88
2023-03-22T07:06:18.840Z,87.29
2023-03-22T07:07:18.824Z,87.08
2023-03-22T07:08:18.811Z,87.29
2023-03-22T07:09:18.790Z,87.08
2023-03-22T07:10:18.745Z,87.08
2023-03-22T07:11:18.736Z,86.88
2023-03-22T07:12:18.731Z,86.63
2023-03-22T07:13:18.732Z,86.83
2023-03-22T07:14:18.696Z,86.53
2023-03-22T07:15:18.729Z,86.63
2023-03-22T07:16:20.005Z,86.73
2023-03-22T07:17:18.673Z,86.12
2023-03-22T07:18:18.646Z,85.98
2023-03-22T07:19:18.648Z,85.47
2023-03-22T07:20:18.615Z,85.68
2023-03-22T07:21:18.577Z,84.96
2023-03-22T07:22:18.591Z,85.33
2023-03-22T07:23:18.564Z,84.51
2023-03-22T07:24:18.556Z,84.51
2023-03-22T07:25:18.747Z,84.82
2023-03-22T07:26:18.506Z,83.56
2023-03-22T07:27:18.528Z,83.86
2023-03-22T07:28:18.494Z,83.62
2023-03-22T07:29:18.647Z,82.46
2023-03-22T07:30:18.475Z,82.70
2023-03-22T07:31:18.479Z,82.26
2023-03-22T07:32:18.495Z,82.01
2023-03-22T07:33:18.428Z,80.08
2023-03-22T07:34:25.128Z,80.24
2023-03-22T07:35:18.440Z,79.94
2023-03-22T07:36:18.386Z,80.15
2023-03-22T07:37:18.399Z,80.15
2023-03-22T07:38:18.387Z,80.35
2023-03-22T07:39:18.343Z,79.27
2023-03-22T07:40:18.343Z,80.69
2023-03-22T07:41:18.332Z,80.29
2023-03-22T07:42:18.339Z,80.93
2023-03-22T07:43:18.317Z,80.52
2023-03-22T07:44:18.610Z,82.15
2023-03-22T07:45:18.497Z,81.27
2023-03-22T07:46:18.293Z,81.88
2023-03-22T07:47:27.230Z,81.27
2023-03-22T07:48:20.674Z,82.19
2023-03-22T07:49:18.214Z,81.99
2023-03-22T07:50:18.204Z,82.43
2023-03-22T07:51:18.200Z,82.33
2023-03-22T07:52:18.204Z,82.84
2023-03-22T07:53:18.163Z,82.94
2023-03-22T07:54:32.585Z,83.09
2023-03-22T07:55:19.121Z,83.29
2023-03-22T07:56:18.169Z,83.29
2023-03-22T07:57:18.144Z,82.98
2023-03-22T07:58:18.112Z,82.98
2023-03-22T07:59:18.132Z,82.78
2023-03-22T08:00:18.079Z,82.98
2023-03-22T08:01:18.055Z,83.70
2023-03-22T08:02:18.123Z,83.70
2023-03-22T08:03:18.099Z,83.39
2023-03-22T08:04:18.034Z,83.39
2023-03-22T08:05:18.022Z,83.09
2023-03-22T08:06:18.021Z,83.18
2023-03-22T08:07:17.989Z,83.29
2023-03-22T08:08:17.985Z,82.37
2023-03-22T08:09:17.987Z,81.96
2023-03-22T08:10:18.007Z,81.93
2023-03-22T08:11:17.916Z,81.93
2023-03-22T08:12:17.906Z,81.93
2023-03-22T08:13:17.888Z,82.03
2023-03-22T08:14:24.782Z,81.93
2023-03-22T08:15:20.277Z,82.13
2023-03-22T08:16:17.990Z,81.93
2023-03-22T08:17:17.834Z,82.23
2023-03-22T08:18:17.853Z,82.19
2023-03-22T08:19:18.064Z,82.03
2023-03-22T08:20:17.820Z,81.62
2023-03-22T08:21:17.772Z,80.80
2023-03-22T08:22:18.041Z,80.19
2023-03-22T08:23:17.771Z,79.44
2023-03-22T08:24:18.512Z,78.93
2023-03-22T08:25:17.754Z,79.34
2023-03-22T08:26:17.722Z,78.53
2023-03-22T08:27:17.731Z,78.02
2023-03-22T08:28:17.733Z,78.22
2023-03-22T08:29:17.773Z,77.61
2023-03-22T08:30:17.683Z,77.51
2023-03-22T08:31:17.724Z,77.20
2023-03-22T08:32:17.651Z,77.10
2023-03-22T08:33:17.644Z,77.10
2023-03-22T08:34:17.654Z,77.71
2023-03-22T08:35:17.681Z,77.30
2023-03-22T08:36:17.642Z,77.55
2023-03-22T08:37:17.615Z,77.03
2023-03-22T08:38:17.547Z,77.64
2023-03-22T08:39:17.573Z,77.24
2023-03-22T08:40:17.536Z,77.81
2023-03-22T08:41:17.529Z,77.81
2023-03-22T08:42:17.541Z,77.91
2023-03-22T08:43:17.474Z,77.61
2023-03-22T08:44:17.496Z,77.51
2023-03-22T08:45:17.452Z,76.79
2023-03-22T08:46:17.607Z,77.00
2023-03-22T08:47:17.486Z,77.47
2023-03-22T08:48:17.506Z,77.17
2023-03-22T08:49:17.424Z,77.17
2023-03-22T08:50:17.398Z,77.17
2023-03-22T08:51:19.219Z,76.35
2023-03-22T08:52:17.426Z,77.67
2023-03-22T08:53:17.379Z,76.15
2023-03-22T08:54:17.359Z,77.98
2023-03-22T08:55:17.346Z,76.86
2023-03-22T08:56:17.319Z,76.04
2023-03-22T08:57:17.346Z,76.86
2023-03-22T08:58:17.306Z,75.84
2023-03-22T08:59:17.257Z,75.84
2023-03-22T09:00:17.277Z,75.50
2023-03-22T09:01:17.431Z,74.99
2023-03-22T09:02:17.304Z,75.06
2023-03-22T09:03:17.220Z,74.58
2023-03-22T09:04:17.259Z,75.77
2023-03-22T09:05:17.221Z,75.09
2023-03-22T09:06:17.174Z,76.21
2023-03-22T09:07:17.168Z,74.96
2023-03-22T09:08:19.422Z,75.20
2023-03-22T09:09:17.226Z,74.41
2023-03-22T09:10:17.164Z,75.53
2023-03-22T09:11:17.990Z,73.09
2023-03-22T09:12:17.131Z,73.13
2023-03-22T09:13:17.116Z,74.04
2023-03-22T09:14:17.150Z,73.74
2023-03-22T09:15:17.064Z,74.08
2023-03-22T09:16:17.207Z,74.79
2023-03-22T09:17:17.034Z,74.55
2023-03-22T09:18:17.017Z,73.60
2023-03-22T09:19:17.020Z,73.19
2023-03-22T09:20:17.032Z,73.09
2023-03-22T09:21:17.019Z,74.04
2023-03-22T09:22:16.970Z,74.35
2023-03-22T09:23:16.961Z,74.15
2023-03-22T09:24:16.970Z,75.30
2023-03-22T09:25:16.945Z,74.48
2023-03-22T09:26:16.895Z,75.50
2023-03-22T09:27:16.951Z,76.72
2023-03-22T09:28:16.940Z,76.31
2023-03-22T09:29:16.881Z,76.42
2023-03-22T09:30:16.892Z,75.77
2023-03-22T09:31:19.779Z,75.37
2023-03-22T09:32:16.838Z,75.26
2023-03-22T09:33:16.808Z,74.55
2023-03-22T09:34:16.821Z,74.85
2023-03-22T09:35:16.789Z,74.65
2023-03-22T09:36:16.814Z,74.79
2023-03-22T09:37:16.766Z,75.70
2023-03-22T09:38:16.740Z,75.40
2023-03-22T09:39:16.736Z,76.11
2023-03-22T09:40:16.732Z,75.70
2023-03-22T09:41:16.689Z,76.11
2023-03-22T09:42:16.712Z,77.13
2023-03-22T09:43:16.683Z,76.31
2023-03-22T09:44:16.765Z,75.91
2023-03-22T09:45:16.664Z,75.33
2023-03-22T09:46:16.692Z,76.96
2023-03-22T09:47:16.670Z,75.74
2023-03-22T09:48:16.640Z,75.54
2023-03-22T09:49:16.624Z,75.33
2023-03-22T09:50:16.621Z,75.64
2023-03-22T09:51:16.570Z,74.82
2023-03-22T09:52:16.638Z,75.02
2023-03-22T09:53:16.570Z,75.02
2023-03-22T09:54:16.525Z,75.81
2023-03-22T09:55:16.603Z,75.91
2023-03-22T09:56:16.494Z,75.20
2023-03-22T09:57:16.644Z,75.77
2023-03-22T09:58:16.532Z,74.76
2023-03-22T09:59:16.456Z,73.84
2023-03-22T10:00:16.565Z,74.35
2023-03-22T10:01:18.499Z,74.76
2023-03-22T10:02:16.525Z,74.85
2023-03-22T10:03:16.436Z,73.84
2023-03-22T10:04:16.561Z,74.45
2023-03-22T10:05:16.384Z,74.96
2023-03-22T10:06:16.403Z,74.24
2023-03-22T10:07:16.369Z,74.96
2023-03-22T10:08:16.357Z,74.35
2023-03-22T10:09:16.425Z,74.65
2023-03-22T10:10:16.331Z,74.35
2023-03-22T10:11:16.308Z,74.04
2023-03-22T10:12:16.385Z,74.55
2023-03-22T10:13:16.270Z,74.15
2023-03-22T10:14:16.262Z,73.94
2023-03-22T10:15:16.268Z,74.65
2023-03-22T10:16:16.315Z,74.15
2023-03-22T10:17:16.229Z,74.62
2023-03-22T10:18:16.199Z,74.11
2023-03-22T10:19:16.225Z,75.09
2023-03-22T10:20:16.166Z,72.92
2023-03-22T10:21:16.155Z,72.21
2023-03-22T10:22:16.152Z,71.36
2023-03-22T10:23:16.147Z,71.57
2023-03-22T10:24:16.139Z,72.25
2023-03-22T10:25:16.162Z,72.41
2023-03-22T10:26:16.109Z,69.27
2023-03-22T10:27:16.098Z,70.89
2023-03-22T10:28:16.081Z,70.59
2023-03-22T10:29:16.126Z,71.16
2023-03-22T10:30:16.045Z,69.88
2023-03-22T10:31:16.077Z,70.01
2023-03-22T10:32:16.065Z,70.62
2023-03-22T10:33:16.017Z,71.47
2023-03-22T10:34:16.002Z,71.20
2023-03-22T10:35:15.985Z,72.21
2023-03-22T10:36:15.957Z,72.72
2023-03-22T10:37:15.951Z,71.73
2023-03-22T10:38:15.940Z,72.14
2023-03-22T10:39:15.972Z,71.97
2023-03-22T10:40:15.920Z,72.38
2023-03-22T10:41:15.919Z,73.50
2023-03-22T10:42:15.922Z,72.89
2023-03-22T10:43:15.897Z,72.38
2023-03-22T10:44:15.854Z,72.69
2023-03-22T10:45:15.890Z,72.82
2023-03-22T10:46:15.889Z,73.09
2023-03-22T10:47:15.807Z,72.11
2023-03-22T10:48:18.694Z,73.80
2023-03-22T10:49:15.788Z,73.39
2023-03-22T10:50:15.788Z,73.09
2023-03-22T10:51:15.806Z,73.09
2023-03-22T10:52:15.767Z,73.26
2023-03-22T10:53:15.783Z,73.26
2023-03-22T10:54:15.757Z,71.47
2023-03-22T10:55:15.750Z,72.08
2023-03-22T10:56:15.723Z,72.28
2023-03-22T10:57:15.699Z,72.08
2023-03-22T10:58:15.719Z,72.78
2023-03-22T10:59:15.674Z,72.96
2023-03-22T11:00:15.661Z,72.55
2023-03-22T11:01:15.726Z,71.84
2023-03-22T11:02:15.743Z,72.04
2023-03-22T11:03:15.630Z,72.04
2023-03-22T11:04:15.625Z,72.14
2023-03-22T11:05:15.616Z,71.64
2023-03-22T11:06:15.579Z,72.58
2023-03-22T11:07:15.559Z,72.78
2023-03-22T11:08:15.554Z,72.28
2023-03-22T11:09:15.560Z,71.87
2023-03-22T11:10:15.590Z,72.28
2023-03-22T11:11:15.528Z,72.78
2023-03-22T11:12:15.471Z,72.75
2023-03-22T11:13:15.479Z,71.73
2023-03-22T11:14:15.468Z,71.64
2023-03-22T11:15:15.479Z,71.87
2023-03-22T11:16:15.495Z,72.08
2023-03-22T11:17:15.431Z,71.77
2023-03-22T11:18:15.420Z,71.67
2023-03-22T11:19:15.408Z,72.89
2023-03-22T11:20:15.402Z,72.58
2023-03-22T11:21:15.377Z,71.77
2023-03-22T11:22:15.361Z,72.38
2023-03-22T11:23:15.352Z,72.48
2023-03-22T11:24:15.313Z,72.17
2023-03-22T11:25:15.317Z,72.38
2023-03-22T11:26:15.313Z,72.28
2023-03-22T11:27:15.308Z,71.47
2023-03-22T11:28:15.287Z,72.89
2023-03-22T11:29:15.258Z,72.08
2023-03-22T11:30:15.248Z,71.97
2023-03-22T11:31:15.356Z,72.48
2023-03-22T11:32:15.252Z,71.47
2023-03-22T11:33:15.290Z,71.97
2023-03-22T11:34:15.218Z,72.17
2023-03-22T11:35:15.220Z,71.87
2023-03-22T11:36:15.184Z,72.69
2023-03-22T11:37:17.215Z,72.11
2023-03-22T11:38:15.128Z,72.31
2023-03-22T11:39:15.129Z,73.54
2023-03-22T11:40:15.132Z,72.52
2023-03-22T11:41:15.123Z,72.62
2023-03-22T11:42:15.176Z,72.31
2023-03-22T11:43:15.111Z,72.69
2023-03-22T11:44:15.088Z,72.58
2023-03-22T11:45:15.056Z,72.78
2023-03-22T11:46:15.088Z,73.60
2023-03-22T11:47:15.049Z,74.11
2023-03-22T11:48:15.219Z,74.82
2023-03-22T11:49:15.064Z,74.82
2023-03-22T11:50:15.015Z,75.98
2023-03-22T11:51:14.963Z,76.79
2023-03-22T11:52:14.973Z,78.45
2023-03-22T11:53:14.980Z,78.76
2023-03-22T11:54:14.939Z,78.66
2023-03-22T11:55:14.963Z,78.28
2023-03-22T11:56:14.922Z,79.00
2023-03-22T11:57:14.923Z,78.80
2023-03-22T11:58:14.891Z,78.80
2023-03-22T11:59:14.902Z,77.78
2023-03-22T12:00:14.948Z,78.19
2023-03-22T12:01:14.894Z,77.26
2023-03-22T12:02:14.860Z,76.96
2023-03-22T12:03:14.880Z,76.15
2023-03-22T12:04:14.797Z,75.13
2023-03-22T12:05:14.834Z,75.84
2023-03-22T12:06:14.800Z,75.40
2023-03-22T12:07:14.761Z,75.40
2023-03-22T12:08:14.761Z,74.28
2023-03-22T12:09:14.748Z,74.48
2023-03-22T12:10:14.735Z,74.85
2023-03-22T12:11:14.714Z,73.54
2023-03-22T12:12:14.670Z,73.33
2023-03-22T12:13:14.685Z,73.63
2023-03-22T12:14:14.665Z,73.23
2023-03-22T12:15:14.651Z,72.62
2023-03-22T12:16:14.649Z,73.43
2023-03-22T12:17:14.628Z,74.15
2023-03-22T12:18:14.651Z,72.82
2023-03-22T12:19:14.581Z,72.11
2023-03-22T12:20:14.657Z,72.01
2023-03-22T12:21:14.565Z,72.72
2023-03-22T12:22:14.569Z,73.13
2023-03-22T12:23:14.541Z,72.31
2023-03-22T12:24:14.530Z,71.91
2023-03-22T12:25:14.913Z,72.62
2023-03-22T12:26:14.509Z,72.11
2023-03-22T12:27:14.477Z,72.01
2023-03-22T12:28:14.471Z,71.77
2023-03-22T12:29:14.478Z,72.38
2023-03-22T12:30:14.506Z,72.11
2023-03-22T12:31:14.457Z,71.50
2023-03-22T12:32:14.483Z,72.01
2023-03-22T12:33:14.504Z,73.02
2023-03-22T12:34:14.394Z,72.01
2023-03-22T12:35:17.777Z,72.82
2023-03-22T12:36:14.432Z,72.52
2023-03-22T12:37:14.370Z,73.16
2023-03-22T12:38:14.341Z,73.47
2023-03-22T12:39:14.315Z,73.80
2023-03-22T12:40:14.430Z,74.62
2023-03-22T12:41:14.315Z,74.41
2023-03-22T12:42:14.276Z,74.82
2023-03-22T12:43:14.283Z,74.62
2023-03-22T12:44:14.250Z,76.08
2023-03-22T12:45:14.263Z,75.47
2023-03-22T12:46:14.292Z,75.57
2023-03-22T12:47:14.393Z,75.74
2023-03-22T12:48:14.300Z,75.74
2023-03-22T12:49:14.185Z,74.82
2023-03-22T12:50:14.253Z,74.82
2023-03-22T12:51:14.169Z,75.54
2023-03-22T12:52:14.183Z,74.11
2023-03-22T12:53:14.170Z,75.02